Time;durP1;ratioP1;P1;durP2;ratioP2;P2;SDS_P1;SDS_P2;PMS_P1;PMS_P2;Temp;Humidity;BMP_temperature;BMP_pressure;BME280_temperature;BME280_humidity;BME280_pressure;Samples;Min_cycle;Max_cycle;Signal;HPM_P1;HPM_P2
2023/03/10 00:04:05;;;;;;;8.67;3.67;;;9.70;99.90;;;;;;2612445;54;20378;-72
2023/03/10 00:09:52;;;;;;;7.33;2.60;;;9.70;99.90;;;;;;2610874;54;20230;-72
2023/03/10 00:15:40;;;;;;;6.37;3.03;;;9.70;99.90;;;;;;2610915;54;20130;-72
2023/03/10 00:21:30;;;;;;;5.50;2.60;;;9.70;99.90;;;;;;2613089;39;20537;-73
2023/03/10 00:31:36;;;;;;;8.17;3.37;;;9.80;99.90;;;;;;2609817;54;20394;-73
2023/03/10 00:37:23;;;;;;;3.67;1.90;;;9.90;99.90;;;;;;2611984;54;20395;-72
2023/03/10 00:43:11;;;;;;;5.70;1.87;;;9.80;99.90;;;;;;2613245;54;20138;-73
2023/03/10 00:48:59;;;;;;;3.47;2.07;;;9.90;99.90;;;;;;2612743;54;20118;-73
2023/03/10 00:54:46;;;;;;;4.30;2.67;;;10.00;99.90;;;;;;2612337;54;20161;-72
2023/03/10 01:00:34;;;;;;;5.43;2.80;;;10.20;99.90;;;;;;2607982;54;20122;-72
2023/03/10 01:06:23;;;;;;;3.20;2.13;;;10.30;99.90;;;;;;2612218;54;20154;-72
2023/03/10 01:12:11;;;;;;;2.60;2.10;;;10.30;99.90;;;;;;2613676;54;20377;-72
2023/03/10 01:18:02;;;;;;;2.50;1.90;;;10.10;99.90;;;;;;2613570;54;20138;-72
2023/03/10 01:23:50;;;;;;;3.20;1.67;;;10.20;99.90;;;;;;2611908;54;20427;-72
2023/03/10 01:27:04;;;;;;;4.77;1.63;;;10.20;99.90;;;;;;2612237;54;20507;-73
2023/03/10 01:29:29;;;;;;;6.70;2.40;;;9.90;99.90;;;;;;2612511;54;21385;-72
2023/03/10 01:35:17;;;;;;;1.70;1.17;;;10.10;99.90;;;;;;2610648;54;20763;-73
2023/03/10 01:41:05;;;;;;;2.60;1.60;;;10.10;99.90;;;;;;2611640;54;20367;-73
2023/03/10 01:46:54;;;;;;;2.87;1.70;;;10.00;99.90;;;;;;2613108;46;20153;-74
2023/03/10 01:52:51;;;;;;;3.53;1.40;;;9.90;99.90;;;;;;2612135;54;20512;-72
2023/03/10 01:58:43;;;;;;;3.70;1.80;;;9.70;99.90;;;;;;2609333;54;21196;-72
2023/03/10 02:08:11;;;;;;;4.20;2.50;;;9.50;99.90;;;;;;2609392;54;20391;-75
2023/03/10 02:14:03;;;;;;;5.23;2.80;;;9.50;99.90;;;;;;2609531;54;20407;-74
2023/03/10 02:27:04;;;;;;;5.13;3.20;;;9.50;99.90;;;;;;2610318;54;20427;-74
2023/03/10 02:36:29;;;;;;;5.10;3.20;;;9.50;99.90;;;;;;2609776;54;21028;-73
2023/03/10 02:42:17;;;;;;;6.13;3.70;;;9.50;99.90;;;;;;2609920;54;20225;-74
2023/03/10 02:48:07;;;;;;;6.27;5.67;;;9.50;99.90;;;;;;2610561;54;20420;-74
2023/03/10 02:53:55;;;;;;;9.83;7.03;;;9.50;99.90;;;;;;2608363;54;20969;-75
2023/03/10 03:03:27;;;;;;;4.90;3.80;;;9.60;99.90;;;;;;2611717;54;20411;-73
2023/03/10 03:09:15;;;;;;;3.57;2.57;;;9.60;99.90;;;;;;2612894;54;20408;-74
2023/03/10 03:15:03;;;;;;;4.27;3.33;;;9.60;99.90;;;;;;2612751;54;20134;-76
2023/03/10 03:20:51;;;;;;;9.43;4.90;;;9.80;99.90;;;;;;2613042;39;20769;-75
2023/03/10 03:26:39;;;;;;;7.33;4.70;;;9.80;99.90;;;;;;2612501;54;20130;-74
2023/03/10 03:32:27;;;;;;;12.80;4.40;;;9.80;99.90;;;;;;2613180;54;20149;-75
2023/03/10 03:38:15;;;;;;;4.67;3.30;;;9.80;99.90;;;;;;2611644;54;20178;-74
2023/03/10 03:44:03;;;;;;;7.30;3.80;;;9.80;99.90;;;;;;2611124;54;20140;-72
2023/03/10 03:49:51;;;;;;;6.70;2.97;;;9.90;99.90;;;;;;2613238;39;20541;-71
2023/03/10 03:55:40;;;;;;;6.43;2.57;;;9.80;99.90;;;;;;2613987;54;20754;-71
2023/03/10 04:01:28;;;;;;;3.93;2.37;;;9.80;99.90;;;;;;2610572;54;20394;-73
2023/03/10 04:07:16;;;;;;;2.83;2.53;;;9.90;99.90;;;;;;2612227;54;20129;-71
2023/03/10 04:13:03;;;;;;;5.80;3.10;;;9.90;99.90;;;;;;2612089;54;20691;-71
2023/03/10 04:18:51;;;;;;;4.23;2.70;;;9.70;99.90;;;;;;2612377;39;20522;-71
2023/03/10 04:24:39;;;;;;;7.33;2.90;;;9.70;99.90;;;;;;2612135;54;20166;-72
2023/03/10 04:33:49;;;;;;;9.70;3.70;;;9.60;99.90;;;;;;2613129;54;20989;-72
2023/03/10 04:39:36;;;;;;;8.60;3.60;;;9.50;99.90;;;;;;2613550;54;20126;-71
2023/03/10 04:45:24;;;;;;;5.43;3.03;;;9.40;99.90;;;;;;2613316;46;20145;-71
2023/03/10 04:51:12;;;;;;;7.20;2.80;;;9.30;99.90;;;;;;2611915;54;20142;-72
2023/03/10 04:57:00;;;;;;;4.60;2.67;;;9.40;99.90;;;;;;2613618;54;20170;-71
2023/03/10 05:02:47;;;;;;;5.10;2.50;;;9.40;99.90;;;;;;2614093;54;20155;-71
2023/03/10 05:08:35;;;;;;;4.70;3.10;;;9.30;99.90;;;;;;2614064;54;20134;-72
2023/03/10 05:14:23;;;;;;;5.53;2.50;;;9.40;99.90;;;;;;2612316;54;20157;-71
2023/03/10 05:20:12;;;;;;;5.20;2.50;;;9.30;99.90;;;;;;2612953;54;20251;-71
2023/03/10 05:26:04;;;;;;;3.37;2.30;;;9.40;99.90;;;;;;2613416;39;20718;-71
2023/03/10 05:29:20;;;;;;;6.50;3.30;;;9.40;99.90;;;;;;2612043;54;20400;-72
2023/03/10 05:31:46;;;;;;;6.97;3.07;;;9.40;99.90;;;;;;2609736;54;20418;-72
2023/03/10 05:37:38;;;;;;;4.97;2.90;;;9.30;99.90;;;;;;2612734;54;20403;-71
2023/03/10 05:43:26;;;;;;;9.17;3.60;;;9.40;99.90;;;;;;2612218;54;20378;-71
2023/03/10 05:49:14;;;;;;;10.60;3.00;;;9.40;99.90;;;;;;2612772;54;20142;-71
2023/03/10 05:52:17;;;;;;;16.47;4.10;;;9.20;99.90;;;;;;2609136;54;20915;-71
2023/03/10 05:54:43;;;;;;;5.90;3.27;;;9.20;99.90;;;;;;2612500;31;20762;-71
2023/03/10 06:00:30;;;;;;;9.10;3.77;;;9.10;99.90;;;;;;2609660;54;20182;-71
2023/03/10 06:06:18;;;;;;;11.20;4.20;;;9.10;99.90;;;;;;2610469;54;20171;-72
2023/03/10 06:12:06;;;;;;;10.30;3.20;;;9.20;99.90;;;;;;2610649;54;20162;-72
2023/03/10 06:17:54;;;;;;;13.00;4.27;;;9.20;99.90;;;;;;2612212;54;20371;-72
2023/03/10 06:23:42;;;;;;;15.07;4.70;;;9.40;99.90;;;;;;2612431;54;20243;-72
2023/03/10 06:36:14;;;;;;;7.70;2.87;;;9.60;99.90;;;;;;2611579;54;20418;-71
2023/03/10 06:42:01;;;;;;;8.13;3.20;;;9.60;99.90;;;;;;2607056;54;20390;-75
2023/03/10 06:47:49;;;;;;;7.10;2.97;;;9.90;99.90;;;;;;2610777;39;21031;-71
2023/03/10 06:53:37;;;;;;;4.90;2.57;;;10.00;99.90;;;;;;2613664;54;20161;-71
2023/03/10 06:59:25;;;;;;;10.87;2.17;;;10.00;99.90;;;;;;2611809;54;20158;-71
2023/03/10 07:05:13;;;;;;;7.83;2.70;;;10.00;99.90;;;;;;2611712;54;20150;-70
2023/03/10 07:11:01;;;;;;;6.73;2.90;;;9.90;99.90;;;;;;2608992;54;21014;-70
2023/03/10 07:16:48;;;;;;;6.90;3.00;;;9.90;99.90;;;;;;2606144;54;20173;-70
2023/03/10 07:22:36;;;;;;;8.73;2.30;;;10.00;99.90;;;;;;2606678;54;20134;-71
2023/03/10 07:28:25;;;;;;;7.67;3.87;;;10.00;99.90;;;;;;2609379;54;20139;-71
2023/03/10 07:34:13;;;;;;;7.87;2.80;;;10.30;99.90;;;;;;2610608;54;20419;-71
2023/03/10 07:40:00;;;;;;;5.93;2.93;;;10.40;99.90;;;;;;2611369;54;20115;-71
2023/03/10 07:45:48;;;;;;;9.03;3.93;;;10.40;99.90;;;;;;2609510;54;20162;-71
2023/03/10 07:51:36;;;;;;;7.10;3.30;;;10.40;99.90;;;;;;2608505;54;20122;-71
2023/03/10 07:57:24;;;;;;;9.57;3.20;;;10.30;99.90;;;;;;2610208;54;20429;-71
2023/03/10 08:03:12;;;;;;;4.63;2.20;;;10.30;99.90;;;;;;2610628;54;20126;-71
2023/03/10 08:05:58;;;;;;;11.97;3.90;;;10.10;99.90;;;;;;2610173;54;20400;-70
2023/03/10 08:08:24;;;;;;;7.80;2.90;;;10.00;99.90;;;;;;2609602;47;20142;-71
2023/03/10 08:14:12;;;;;;;6.70;3.53;;;10.00;99.90;;;;;;2613617;54;20366;-71
2023/03/10 08:20:00;;;;;;;8.40;3.00;;;10.00;99.90;;;;;;2613800;54;20512;-71
2023/03/10 08:25:48;;;;;;;8.13;3.27;;;10.10;99.90;;;;;;2613889;54;20139;-71
2023/03/10 08:31:35;;;;;;;6.30;3.70;;;10.10;99.90;;;;;;2612678;54;20182;-72
2023/03/10 08:37:23;;;;;;;8.27;5.67;;;9.90;99.90;;;;;;2612180;54;20126;-72
2023/03/10 08:43:11;;;;;;;8.40;3.50;;;10.10;99.90;;;;;;2613958;54;20207;-73
2023/03/10 08:48:59;;;;;;;9.40;4.30;;;10.10;99.90;;;;;;2610147;54;20126;-71
2023/03/10 08:54:46;;;;;;;7.37;3.77;;;9.90;99.90;;;;;;2612217;54;20360;-72
2023/03/10 09:00:35;;;;;;;7.83;3.13;;;10.20;99.90;;;;;;2610817;46;20154;-72
2023/03/10 09:06:23;;;;;;;7.17;3.60;;;10.50;99.90;;;;;;2611617;54;20491;-72
2023/03/10 09:12:11;;;;;;;9.33;3.80;;;10.40;99.90;;;;;;2611555;54;20126;-72
2023/03/10 09:18:00;;;;;;;15.83;4.07;;;10.40;99.90;;;;;;2612641;54;20387;-72
2023/03/10 09:23:49;;;;;;;5.93;3.20;;;10.50;99.90;;;;;;2611803;54;20371;-71
2023/03/10 09:33:27;;;;;;;8.10;3.53;;;10.90;99.90;;;;;;2609147;54;20370;-71
2023/03/10 09:35:55;;;;;;;12.57;3.97;;;11.20;99.90;;;;;;2609713;39;20841;-71
2023/03/10 09:41:55;;;;;;;14.50;4.07;;;11.50;99.90;;;;;;2610739;54;20928;-70
2023/03/10 09:47:53;;;;;;;5.87;3.20;;;12.10;99.90;;;;;;2610583;54;20411;-71
2023/03/10 10:03:45;;;;;;;11.43;4.30;;;12.90;99.90;;;;;;2611343;54;20359;-71
2023/03/10 10:09:42;;;;;;;6.70;3.40;;;12.70;99.90;;;;;;2611703;54;20391;-70
2023/03/10 10:15:31;;;;;;;6.20;4.07;;;12.20;99.90;;;;;;2609455;54;20452;-71
2023/03/10 10:25:01;;;;;;;9.70;3.90;;;13.50;99.90;;;;;;2609627;39;20922;-71
2023/03/10 10:34:21;;;;;;;6.10;4.07;;;12.40;99.90;;;;;;2610277;54;20431;-71
2023/03/10 10:51:09;;;;;;;4.30;3.47;;;12.40;99.90;;;;;;2610816;54;20380;-70
2023/03/10 10:57:00;;;;;;;6.37;4.23;;;13.00;99.90;;;;;;2612219;54;20418;-71
2023/03/10 11:02:48;;;;;;;5.13;3.37;;;13.00;99.90;;;;;;2614844;39;20867;-70
2023/03/10 11:08:38;;;;;;;4.73;4.27;;;13.50;99.90;;;;;;2611806;54;20138;-71
2023/03/10 11:21:00;;;;;;;5.00;4.30;;;13.20;99.90;;;;;;2615119;39;20746;-71
2023/03/10 11:26:48;;;;;;;8.60;4.80;;;13.50;99.90;;;;;;2612357;54;20410;-71
2023/03/10 11:36:45;;;;;;;8.37;6.27;;;13.10;99.90;;;;;;2613478;54;20431;-71
2023/03/10 11:42:59;;;;;;;10.50;6.03;;;13.80;99.90;;;;;;2612767;39;20636;-71
2023/03/10 11:49:01;;;;;;;9.10;5.20;;;13.70;99.90;;;;;;2607578;54;20482;-71
2023/03/10 12:01:07;;;;;;;6.57;5.10;;;12.90;99.90;;;;;;2611842;54;20396;-71
2023/03/10 12:13:26;;;;;;;5.00;3.23;;;10.90;99.90;;;;;;2612591;54;20355;-71
2023/03/10 12:19:13;;;;;;;3.37;2.40;;;10.90;99.90;;;;;;2613877;39;20787;-72
2023/03/10 12:25:01;;;;;;;4.20;2.53;;;10.70;99.90;;;;;;2611063;54;20122;-73
2023/03/10 12:57:13;;;;;;;4.80;1.90;;;10.30;99.90;;;;;;2609109;54;21005;-71
2023/03/10 13:03:08;;;;;;;5.60;2.30;;;10.30;99.90;;;;;;2611400;54;20491;-72
2023/03/10 13:15:29;;;;;;;4.63;2.40;;;10.40;99.90;;;;;;2612010;46;20559;-71
2023/03/10 13:21:37;;;;;;;4.20;1.60;;;10.00;99.90;;;;;;2611702;54;20391;-71
2023/03/10 13:27:29;;;;;;;3.83;2.07;;;10.00;99.90;;;;;;2611612;39;20449;-72
2023/03/10 13:36:39;;;;;;;7.97;2.70;;;9.70;99.90;;;;;;2611135;54;20403;-72
2023/03/10 13:42:27;;;;;;;2.20;1.63;;;9.60;99.90;;;;;;2611578;54;20420;-74
2023/03/10 13:48:14;;;;;;;7.10;2.37;;;9.50;99.90;;;;;;2612390;39;20462;-73
2023/03/10 13:54:19;;;;;;;2.60;1.50;;;9.50;99.90;;;;;;2612021;54;20703;-74
2023/03/10 14:00:11;;;;;;;3.20;1.83;;;9.50;99.90;;;;;;2608957;54;20418;-72
2023/03/10 14:05:59;;;;;;;1.90;1.20;;;9.50;99.90;;;;;;2608191;54;20440;-73
2023/03/10 14:11:49;;;;;;;2.10;1.30;;;9.50;99.90;;;;;;2608971;54;20135;-72
2023/03/10 14:17:37;;;;;;;2.20;1.20;;;9.50;99.90;;;;;;2611643;54;20499;-72
2023/03/10 14:23:26;;;;;;;7.40;1.20;;;9.50;99.90;;;;;;2610297;54;20396;-72
2023/03/10 14:25:56;;;;;;;1.60;1.17;;;9.50;99.90;;;;;;2610853;54;21213;-71
2023/03/10 14:28:32;;;;;;;2.27;1.47;;;9.50;99.90;;;;;;2609192;54;20965;-73
2023/03/10 14:34:19;;;;;;;3.70;1.80;;;9.50;99.90;;;;;;2610222;54;20434;-72
2023/03/10 14:40:09;;;;;;;2.23;1.30;;;9.40;99.90;;;;;;2610972;54;20682;-74
2023/03/10 14:46:04;;;;;;;1.40;0.80;;;9.40;99.90;;;;;;2607413;54;20403;-72
2023/03/10 14:51:52;;;;;;;1.93;1.00;;;9.20;99.90;;;;;;2610432;54;20519;-72
2023/03/10 14:57:41;;;;;;;2.37;1.50;;;8.90;99.90;;;;;;2611939;54;20515;-73
2023/03/10 15:03:29;;;;;;;1.30;0.60;;;8.70;99.90;;;;;;2608461;54;20363;-72
2023/03/10 15:09:18;;;;;;;1.80;1.33;;;8.60;99.90;;;;;;2609983;54;20231;-72
2023/03/10 15:21:39;;;;;;;2.37;1.47;;;8.20;99.90;;;;;;2607136;54;20368;-70
2023/03/10 15:27:26;;;;;;;5.70;3.23;;;8.00;99.90;;;;;;2604775;54;20119;-71
2023/03/10 15:36:35;;;;;;;2.90;1.53;;;7.80;99.90;;;;;;2607447;54;20406;-72
2023/03/10 15:42:23;;;;;;;4.67;1.73;;;7.80;99.90;;;;;;2611101;54;20441;-73
2023/03/10 15:48:11;;;;;;;3.60;2.63;;;7.70;99.90;;;;;;2610378;39;20494;-72
2023/03/10 15:53:58;;;;;;;3.43;2.87;;;7.70;99.90;;;;;;2612048;54;20471;-73
2023/03/10 15:59:46;;;;;;;5.33;2.73;;;7.60;99.90;;;;;;2610634;54;20130;-72
2023/03/10 16:05:34;;;;;;;3.50;2.27;;;7.40;99.90;;;;;;2613600;46;20138;-71
2023/03/10 16:11:22;;;;;;;2.07;1.70;;;7.40;99.90;;;;;;2613456;54;20338;-73
2023/03/10 16:17:10;;;;;;;5.00;3.13;;;7.20;99.90;;;;;;2614258;54;20404;-73
2023/03/10 16:22:58;;;;;;;3.90;2.73;;;7.20;99.90;;;;;;2611400;54;21255;-70
2023/03/10 16:28:49;;;;;;;4.30;2.60;;;7.00;99.90;;;;;;2612921;54;20146;-72
2023/03/10 16:31:58;;;;;;;3.53;2.80;;;6.00;99.90;;;;;;2613726;54;20402;-72
2023/03/10 16:34:24;;;;;;;2.67;1.93;;;5.50;99.90;;;;;;2610630;54;20427;-71
2023/03/10 16:40:12;;;;;;;2.10;1.63;;;4.70;99.90;;;;;;2613916;54;20922;-72
2023/03/10 16:52:18;;;;;;;6.20;3.70;;;3.70;99.90;;;;;;2612944;54;20366;-72
2023/03/10 16:58:06;;;;;;;2.73;2.10;;;3.10;99.90;;;;;;2613580;54;20138;-72
2023/03/10 17:03:54;;;;;;;4.13;2.40;;;2.30;99.90;;;;;;2611258;54;20133;-71
2023/03/10 17:09:41;;;;;;;5.40;3.10;;;2.20;99.90;;;;;;2612885;39;20820;-72
2023/03/10 17:15:29;;;;;;;4.33;3.50;;;1.80;99.90;;;;;;2613005;54;20187;-72
2023/03/10 17:21:21;;;;;;;7.13;4.87;;;1.60;99.90;;;;;;2613351;54;20133;-73
2023/03/10 17:27:09;;;;;;;15.03;4.97;;;1.40;99.90;;;;;;2611319;54;20366;-72
2023/03/10 17:36:30;;;;;;;4.80;3.30;;;1.10;99.90;;;;;;2612329;54;20965;-72
2023/03/10 17:42:18;;;;;;;3.90;3.20;;;1.00;99.90;;;;;;2612437;54;20536;-72
2023/03/10 17:45:21;;;;;;;6.13;4.60;;;1.00;99.90;;;;;;2611729;54;20411;-72
2023/03/10 17:47:47;;;;;;;7.03;4.53;;;1.00;99.90;;;;;;2612604;54;20155;-72
2023/03/10 17:53:35;;;;;;;4.90;3.53;;;1.00;99.90;;;;;;2613312;54;20669;-72
2023/03/10 17:59:22;;;;;;;7.10;5.37;;;0.90;99.90;;;;;;2611955;54;20122;-71
2023/03/10 18:05:10;;;;;;;6.70;5.33;;;0.90;99.90;;;;;;2610337;54;20134;-71
2023/03/10 18:11:01;;;;;;;2.73;2.30;;;0.90;99.90;;;;;;2609983;54;20166;-70
2023/03/10 18:16:49;;;;;;;5.40;4.30;;;0.90;99.90;;;;;;2610938;54;20370;-73
2023/03/10 18:22:37;;;;;;;7.77;4.53;;;0.80;99.90;;;;;;2611890;54;21688;-72
2023/03/10 18:28:27;;;;;;;8.87;5.00;;;0.90;99.90;;;;;;2610468;54;20134;-71
2023/03/10 18:34:17;;;;;;;7.37;5.60;;;0.90;99.90;;;;;;2610457;54;20339;-71
2023/03/10 18:43:34;;;;;;;7.20;4.83;;;1.00;99.90;;;;;;2610900;46;20401;-71
2023/03/10 18:49:24;;;;;;;5.40;3.90;;;1.00;99.90;;;;;;2614682;39;20785;-73
2023/03/10 18:55:12;;;;;;;7.43;5.37;;;1.00;99.90;;;;;;2612394;54;20382;-72
2023/03/10 19:01:00;;;;;;;6.80;5.23;;;0.90;99.90;;;;;;2611404;46;20402;-72
2023/03/10 19:06:48;;;;;;;8.40;5.07;;;0.90;99.90;;;;;;2612776;54;20676;-71
2023/03/10 19:12:36;;;;;;;4.70;3.70;;;1.00;99.90;;;;;;2611600;54;20118;-72
2023/03/10 19:18:24;;;;;;;7.20;4.10;;;0.90;99.90;;;;;;2613107;54;20137;-72
2023/03/10 19:24:11;;;;;;;6.63;4.97;;;0.90;99.90;;;;;;2613540;54;20507;-72
2023/03/10 19:29:59;;;;;;;11.73;6.93;;;0.90;99.90;;;;;;2609058;54;20151;-72
2023/03/10 19:35:47;;;;;;;6.27;4.07;;;0.80;99.90;;;;;;2612253;54;20130;-73
2023/03/10 19:39:01;;;;;;;6.10;3.30;;;0.80;99.90;;;;;;2612949;39;20640;-72
2023/03/10 19:41:27;;;;;;;7.10;5.40;;;0.80;99.90;;;;;;2610462;54;20154;-72
2023/03/10 19:47:17;;;;;;;7.70;4.67;;;0.80;99.90;;;;;;2610904;54;20122;-72
2023/03/10 19:53:05;;;;;;;9.40;4.83;;;0.90;99.90;;;;;;2612278;54;20403;-72
2023/03/10 19:58:53;;;;;;;6.77;3.80;;;0.90;99.90;;;;;;2612266;39;20482;-72
2023/03/10 20:04:41;;;;;;;3.83;2.47;;;0.90;99.90;;;;;;2612315;54;20656;-72
2023/03/10 20:10:29;;;;;;;4.20;3.60;;;1.00;99.90;;;;;;2611927;54;20439;-71
2023/03/10 20:16:18;;;;;;;5.27;3.37;;;1.00;99.90;;;;;;2610112;54;20251;-73
2023/03/10 20:22:06;;;;;;;5.80;4.27;;;1.10;99.90;;;;;;2611735;54;20401;-73
2023/03/10 20:27:54;;;;;;;2.80;1.83;;;1.10;99.90;;;;;;2610036;54;20793;-72
2023/03/10 20:33:42;;;;;;;4.50;3.23;;;1.10;99.90;;;;;;2613273;39;20518;-73
2023/03/10 20:43:29;;;;;;;6.13;4.10;;;1.20;99.90;;;;;;2611683;54;20358;-73
2023/03/10 20:49:17;;;;;;;6.03;4.40;;;1.30;99.90;;;;;;2609857;54;20370;-72
2023/03/10 20:55:06;;;;;;;5.27;3.33;;;1.30;99.90;;;;;;2610830;54;20165;-73
2023/03/10 21:00:54;;;;;;;3.57;3.10;;;1.30;99.90;;;;;;2613086;54;20491;-73
2023/03/10 21:06:42;;;;;;;4.23;3.73;;;1.30;99.90;;;;;;2614187;54;20656;-70
2023/03/10 21:12:30;;;;;;;4.60;3.50;;;1.30;99.90;;;;;;2612826;54;20122;-72
2023/03/10 21:18:18;;;;;;;4.57;3.20;;;1.40;99.90;;;;;;2612861;54;20408;-70
2023/03/10 21:24:06;;;;;;;6.30;4.93;;;1.40;99.90;;;;;;2612899;54;20151;-70
2023/03/10 21:29:56;;;;;;;5.40;4.43;;;1.40;99.90;;;;;;2612855;54;20422;-72
2023/03/10 21:35:44;;;;;;;6.50;4.70;;;1.40;99.90;;;;;;2613581;54;20386;-72
2023/03/10 21:39:02;;;;;;;5.27;3.93;;;1.40;99.90;;;;;;2613561;54;20527;-71
2023/03/10 21:41:28;;;;;;;9.27;4.63;;;1.40;99.90;;;;;;2611703;54;20182;-71
2023/03/10 21:47:16;;;;;;;12.23;6.03;;;1.40;99.90;;;;;;2614890;54;20366;-71
2023/03/10 21:53:04;;;;;;;5.73;4.23;;;1.40;99.90;;;;;;2614706;54;20199;-71
2023/03/10 21:58:52;;;;;;;8.30;3.80;;;1.40;99.90;;;;;;2614874;54;20989;-71
2023/03/10 22:04:39;;;;;;;5.57;4.10;;;1.50;99.90;;;;;;2614098;54;20669;-71
2023/03/10 22:10:27;;;;;;;7.00;4.87;;;1.40;99.90;;;;;;2612296;54;20150;-71
2023/03/10 22:16:16;;;;;;;5.47;4.17;;;1.50;99.90;;;;;;2613304;39;20522;-71
2023/03/10 22:22:04;;;;;;;8.80;5.47;;;1.50;99.90;;;;;;2611723;54;20419;-71
2023/03/10 22:27:54;;;;;;;7.37;4.70;;;1.50;99.90;;;;;;2611607;54;20487;-72
2023/03/10 22:33:42;;;;;;;4.90;3.80;;;1.50;99.90;;;;;;2612868;54;20912;-71
2023/03/10 22:43:35;;;;;;;5.30;4.00;;;1.50;99.90;;;;;;2610838;39;20772;-71
2023/03/10 22:49:23;;;;;;;10.60;5.70;;;1.60;99.90;;;;;;2613578;54;20391;-72
2023/03/10 22:55:16;;;;;;;7.40;5.40;;;1.50;99.90;;;;;;2611501;54;20134;-71
2023/03/10 23:01:05;;;;;;;6.93;5.50;;;1.50;99.90;;;;;;2610984;54;20391;-72
2023/03/10 23:06:53;;;;;;;6.87;4.73;;;1.50;99.90;;;;;;2612983;54;21002;-71
2023/03/10 23:12:43;;;;;;;5.67;5.03;;;1.50;99.90;;;;;;2613820;54;20650;-71
2023/03/10 23:18:30;;;;;;;5.43;4.50;;;1.40;99.90;;;;;;2613237;54;20928;-72
2023/03/10 23:24:18;;;;;;;6.63;5.50;;;1.40;99.90;;;;;;2610938;54;20114;-71
2023/03/10 23:30:06;;;;;;;6.17;5.20;;;1.40;99.90;;;;;;2612367;54;20152;-70
2023/03/10 23:35:53;;;;;;;9.03;6.53;;;1.10;99.90;;;;;;2614170;54;20382;-71
2023/03/10 23:39:02;;;;;;;5.07;3.83;;;1.10;99.90;;;;;;2613050;54;20403;-70
2023/03/10 23:41:28;;;;;;;7.87;4.83;;;1.10;99.90;;;;;;2613914;54;20154;-71
2023/03/10 23:47:16;;;;;;;5.53;3.10;;;1.10;99.90;;;;;;2611985;54;20171;-70
2023/03/10 23:53:05;;;;;;;4.20;3.67;;;1.10;99.90;;;;;;2611906;54;20266;-71
2023/03/10 23:58:53;;;;;;;4.40;3.40;;;1.20;99.90;;;;;;2612424;54;20366;-71
